NKS526B MMGL-MMMX
Flight info
| Callsign | NKS526B |
|---|---|
| Flight time | 0h 55m |
| Altitude | 37000 |
| Route | EMIRI1B EMIRI UT119 ESPOS ESPOS3A |
| Aircraft | A21N/M-SDE3FGHIRWY/LB1 |
Departure
| Time | 2026-05-06 04:36 |
|---|---|
| Airport | Guadalajara International Airport (MMGL) |
Arrival
| Time | 2026-05-06 05:31 |
|---|---|
| Airport | Mexico City Benito Juárez International Airport (MMMX) |
| Time | Latitude | Longitude | Altitude | Speed | Heading |
|---|---|---|---|---|---|
| 2026-05-06 03:55 | 20.52263 | -103.29940 | 5027 ft | 0 kts | 199° |
| 2026-05-06 04:27 | 20.52269 | -103.29936 | 5028 ft | 2 kts | 226° |
| 2026-05-06 04:27 | 20.52279 | -103.29926 | 5027 ft | 1 kts | 198° |
| 2026-05-06 04:28 | 20.52292 | -103.29919 | 5027 ft | 2 kts | 234° |
| 2026-05-06 04:28 | 20.52299 | -103.29903 | 5026 ft | 2 kts | 261° |
| 2026-05-06 04:28 | 20.52298 | -103.29890 | 5026 ft | 0 kts | 285° |
| 2026-05-06 04:28 | 20.52296 | -103.29884 | 5026 ft | 1 kts | 290° |
| 2026-05-06 04:29 | 20.52296 | -103.29882 | 5026 ft | 0 kts | 289° |
| 2026-05-06 04:31 | 20.52304 | -103.29895 | 5026 ft | 5 kts | 301° |
| 2026-05-06 04:31 | 20.52292 | -103.29904 | 5027 ft | 5 kts | 125° |
| 2026-05-06 04:31 | 20.52277 | -103.29854 | 5026 ft | 8 kts | 115° |
| 2026-05-06 04:31 | 20.52255 | -103.29796 | 5026 ft | 8 kts | 116° |
| 2026-05-06 04:32 | 20.52195 | -103.29770 | 5027 ft | 12 kts | 188° |
| 2026-05-06 04:32 | 20.52105 | -103.29797 | 5027 ft | 13 kts | 190° |
| 2026-05-06 04:32 | 20.52042 | -103.29739 | 5027 ft | 13 kts | 115° |
| 2026-05-06 04:32 | 20.51993 | -103.29626 | 5027 ft | 21 kts | 115° |
| 2026-05-06 04:33 | 20.51941 | -103.29533 | 5027 ft | 3 kts | 199° |
| 2026-05-06 04:33 | 20.51922 | -103.29540 | 5027 ft | 0 kts | 196° |
| 2026-05-06 04:34 | 20.51902 | -103.29546 | 5027 ft | 8 kts | 198° |
| 2026-05-06 04:34 | 20.51837 | -103.29578 | 5027 ft | 9 kts | 224° |
| 2026-05-06 04:34 | 20.51836 | -103.29649 | 5027 ft | 10 kts | 290° |
| 2026-05-06 04:34 | 20.51863 | -103.29718 | 5028 ft | 9 kts | 294° |
| 2026-05-06 04:35 | 20.51900 | -103.29806 | 5029 ft | 29 kts | 294° |
| 2026-05-06 04:35 | 20.52086 | -103.30251 | 5029 ft | 98 kts | 294° |
| 2026-05-06 04:35 | 20.52447 | -103.31113 | 5034 ft | 155 kts | 293° |
| 2026-05-06 04:35 | 20.52942 | -103.32300 | 5189 ft | 186 kts | 292° |
| 2026-05-06 04:36 | 20.53461 | -103.33594 | 5740 ft | 191 kts | 292° |
| 2026-05-06 04:36 | 20.53975 | -103.34895 | 6431 ft | 192 kts | 291° |
| 2026-05-06 04:36 | 20.54473 | -103.36175 | 7191 ft | 183 kts | 291° |
| 2026-05-06 04:36 | 20.54960 | -103.37442 | 7557 ft | 187 kts | 291° |
| 2026-05-06 04:37 | 20.55501 | -103.38728 | 7810 ft | 198 kts | 293° |
| 2026-05-06 04:37 | 20.56094 | -103.40097 | 8099 ft | 206 kts | 294° |
| 2026-05-06 04:37 | 20.56697 | -103.41522 | 8414 ft | 215 kts | 292° |
| 2026-05-06 04:37 | 20.57263 | -103.43029 | 8665 ft | 226 kts | 289° |
| 2026-05-06 04:38 | 20.57662 | -103.44683 | 8990 ft | 233 kts | 282° |
| 2026-05-06 04:38 | 20.58219 | -103.46338 | 9232 ft | 246 kts | 295° |
| 2026-05-06 04:38 | 20.58986 | -103.48050 | 9350 ft | 266 kts | 288° |
| 2026-05-06 04:38 | 20.59097 | -103.50043 | 9571 ft | 278 kts | 255° |
| 2026-05-06 04:39 | 20.58155 | -103.51881 | 9792 ft | 292 kts | 224° |
| 2026-05-06 04:39 | 20.56372 | -103.52970 | 10168 ft | 300 kts | 193° |
| 2026-05-06 04:39 | 20.54331 | -103.52966 | 10924 ft | 295 kts | 169° |
| 2026-05-06 04:39 | 20.52349 | -103.52252 | 11122 ft | 312 kts | 158° |
| 2026-05-06 04:40 | 20.50219 | -103.51598 | 11338 ft | 326 kts | 176° |
| 2026-05-06 04:40 | 20.47901 | -103.52056 | 11640 ft | 339 kts | 204° |
| 2026-05-06 04:40 | 20.45773 | -103.53336 | 12229 ft | 342 kts | 210° |
| 2026-05-06 04:40 | 20.43912 | -103.54529 | 12734 ft | 344 kts | 209° |
| 2026-05-06 04:41 | 20.41791 | -103.55688 | 13259 ft | 344 kts | 197° |
| 2026-05-06 04:41 | 20.39411 | -103.55992 | 13781 ft | 343 kts | 175° |
| 2026-05-06 04:41 | 20.37107 | -103.55355 | 14323 ft | 344 kts | 155° |
| 2026-05-06 04:41 | 20.35155 | -103.53910 | 14831 ft | 347 kts | 136° |
| 2026-05-06 04:42 | 20.33753 | -103.51817 | 15307 ft | 353 kts | 120° |
| 2026-05-06 04:42 | 20.32612 | -103.49466 | 15808 ft | 356 kts | 119° |
| 2026-05-06 04:42 | 20.31494 | -103.47147 | 16264 ft | 359 kts | 119° |
| 2026-05-06 04:42 | 20.30339 | -103.44765 | 16729 ft | 362 kts | 120° |
| 2026-05-06 04:43 | 20.29174 | -103.42378 | 17194 ft | 365 kts | 120° |
| 2026-05-06 04:43 | 20.27991 | -103.39960 | 17670 ft | 368 kts | 120° |
| 2026-05-06 04:43 | 20.26812 | -103.37557 | 18136 ft | 370 kts | 120° |
| 2026-05-06 04:43 | 20.25624 | -103.35140 | 18571 ft | 372 kts | 120° |
| 2026-05-06 04:44 | 20.24425 | -103.32704 | 19016 ft | 374 kts | 121° |
| 2026-05-06 04:44 | 20.23204 | -103.30228 | 19468 ft | 376 kts | 121° |
| 2026-05-06 04:44 | 20.21996 | -103.27778 | 19895 ft | 378 kts | 121° |
| 2026-05-06 04:44 | 20.20764 | -103.25281 | 20325 ft | 380 kts | 121° |
| 2026-05-06 04:45 | 20.19535 | -103.22791 | 20736 ft | 383 kts | 121° |
| 2026-05-06 04:45 | 20.18306 | -103.20300 | 21129 ft | 385 kts | 121° |
| 2026-05-06 04:45 | 20.17054 | -103.17766 | 21528 ft | 387 kts | 121° |
| 2026-05-06 04:45 | 20.15805 | -103.15235 | 21913 ft | 389 kts | 121° |
| 2026-05-06 04:46 | 20.14532 | -103.12660 | 22291 ft | 391 kts | 121° |
| 2026-05-06 04:46 | 20.13218 | -103.10168 | 22640 ft | 391 kts | 127° |
| 2026-05-06 04:46 | 20.11553 | -103.07867 | 22978 ft | 391 kts | 135° |
| 2026-05-06 04:46 | 20.09568 | -103.05878 | 23329 ft | 390 kts | 144° |
| 2026-05-06 04:47 | 20.07402 | -103.04140 | 23677 ft | 391 kts | 146° |
| 2026-05-06 04:47 | 20.05213 | -103.02451 | 24003 ft | 394 kts | 147° |
| 2026-05-06 04:47 | 20.02955 | -103.00713 | 24313 ft | 398 kts | 146° |
| 2026-05-06 04:47 | 20.00713 | -102.98976 | 24619 ft | 401 kts | 146° |
| 2026-05-06 04:48 | 19.98458 | -102.97224 | 24961 ft | 403 kts | 146° |
| 2026-05-06 04:48 | 19.96350 | -102.95261 | 25227 ft | 410 kts | 136° |
| 2026-05-06 04:48 | 19.94596 | -102.92853 | 25522 ft | 417 kts | 125° |
| 2026-05-06 04:48 | 19.93258 | -102.90060 | 25837 ft | 422 kts | 116° |
| 2026-05-06 04:49 | 19.92146 | -102.87164 | 26154 ft | 425 kts | 114° |
| 2026-05-06 04:49 | 19.91065 | -102.84255 | 26450 ft | 428 kts | 114° |
| 2026-05-06 04:49 | 19.89969 | -102.81309 | 26740 ft | 431 kts | 114° |
| 2026-05-06 04:49 | 19.88857 | -102.78348 | 27003 ft | 434 kts | 114° |
| 2026-05-06 04:50 | 19.87729 | -102.75362 | 27283 ft | 437 kts | 114° |
| 2026-05-06 04:50 | 19.86602 | -102.72389 | 27564 ft | 439 kts | 114° |
| 2026-05-06 04:50 | 19.85442 | -102.69345 | 27837 ft | 442 kts | 114° |
| 2026-05-06 04:50 | 19.84298 | -102.66342 | 28109 ft | 445 kts | 114° |
| 2026-05-06 04:51 | 19.83135 | -102.63295 | 28375 ft | 447 kts | 114° |
| 2026-05-06 04:51 | 19.81961 | -102.60220 | 28630 ft | 450 kts | 114° |
| 2026-05-06 04:51 | 19.80778 | -102.57124 | 28893 ft | 453 kts | 114° |
| 2026-05-06 04:51 | 19.79599 | -102.54041 | 29159 ft | 456 kts | 114° |
| 2026-05-06 04:52 | 19.78406 | -102.50926 | 29446 ft | 458 kts | 114° |
| 2026-05-06 04:52 | 19.77201 | -102.47783 | 29746 ft | 459 kts | 114° |
| 2026-05-06 04:52 | 19.75998 | -102.44642 | 30043 ft | 461 kts | 114° |
| 2026-05-06 04:52 | 19.74798 | -102.41513 | 30330 ft | 463 kts | 114° |
| 2026-05-06 04:53 | 19.73582 | -102.38344 | 30621 ft | 464 kts | 114° |
| 2026-05-06 04:53 | 19.72353 | -102.35139 | 30935 ft | 465 kts | 114° |
| 2026-05-06 04:53 | 19.71148 | -102.32004 | 31339 ft | 464 kts | 114° |
| 2026-05-06 04:53 | 19.69935 | -102.28844 | 31760 ft | 462 kts | 114° |
| 2026-05-06 04:54 | 19.68715 | -102.25674 | 32150 ft | 461 kts | 114° |
| 2026-05-06 04:54 | 19.67510 | -102.22539 | 32507 ft | 460 kts | 114° |
| 2026-05-06 04:54 | 19.66307 | -102.19418 | 32868 ft | 460 kts | 114° |
| 2026-05-06 04:54 | 19.65113 | -102.16318 | 33262 ft | 459 kts | 114° |
| 2026-05-06 04:55 | 19.63909 | -102.13198 | 33675 ft | 458 kts | 114° |
| 2026-05-06 04:55 | 19.62706 | -102.10079 | 34111 ft | 456 kts | 114° |
| 2026-05-06 04:55 | 19.61506 | -102.06972 | 34539 ft | 454 kts | 114° |
| 2026-05-06 04:55 | 19.60321 | -102.03900 | 34939 ft | 453 kts | 114° |
| 2026-05-06 04:56 | 19.59126 | -102.00807 | 35331 ft | 451 kts | 114° |
| 2026-05-06 04:56 | 19.57944 | -101.97749 | 35701 ft | 450 kts | 114° |
| 2026-05-06 04:56 | 19.56761 | -101.94689 | 35989 ft | 451 kts | 114° |
| 2026-05-06 04:56 | 19.55568 | -101.91609 | 36224 ft | 452 kts | 114° |
| 2026-05-06 04:57 | 19.54376 | -101.88529 | 36439 ft | 453 kts | 114° |
| 2026-05-06 04:57 | 19.53180 | -101.85443 | 36662 ft | 454 kts | 114° |
| 2026-05-06 04:57 | 19.51970 | -101.82326 | 36894 ft | 455 kts | 114° |
| 2026-05-06 04:57 | 19.50770 | -101.79233 | 37120 ft | 456 kts | 114° |
| 2026-05-06 04:58 | 19.49565 | -101.76128 | 37323 ft | 456 kts | 113° |
| 2026-05-06 04:58 | 19.47150 | -101.69908 | 37387 ft | 458 kts | 114° |
| 2026-05-06 04:59 | 19.44728 | -101.63678 | 37382 ft | 458 kts | 113° |
| 2026-05-06 04:59 | 19.42261 | -101.57340 | 37359 ft | 458 kts | 113° |
| 2026-05-06 05:00 | 19.39803 | -101.51032 | 37347 ft | 458 kts | 113° |
| 2026-05-06 05:00 | 19.37268 | -101.44541 | 37334 ft | 458 kts | 114° |
| 2026-05-06 05:01 | 19.34758 | -101.38126 | 37320 ft | 458 kts | 113° |
| 2026-05-06 05:01 | 19.32310 | -101.31873 | 37298 ft | 457 kts | 114° |
| 2026-05-06 05:02 | 19.29851 | -101.25600 | 37291 ft | 457 kts | 114° |
| 2026-05-06 05:02 | 19.27413 | -101.19384 | 37260 ft | 456 kts | 114° |
| 2026-05-06 05:03 | 19.24963 | -101.13143 | 37228 ft | 457 kts | 114° |
| 2026-05-06 05:03 | 19.22513 | -101.06911 | 37210 ft | 457 kts | 114° |
| 2026-05-06 05:04 | 19.20058 | -101.00674 | 37198 ft | 457 kts | 114° |
| 2026-05-06 05:04 | 19.17608 | -100.94456 | 37208 ft | 457 kts | 114° |
| 2026-05-06 05:05 | 19.15160 | -100.88251 | 37177 ft | 457 kts | 114° |
| 2026-05-06 05:05 | 19.12720 | -100.82075 | 37166 ft | 457 kts | 114° |
| 2026-05-06 05:06 | 19.10292 | -100.75935 | 37114 ft | 457 kts | 114° |
| 2026-05-06 05:06 | 19.07833 | -100.69720 | 37122 ft | 457 kts | 114° |
| 2026-05-06 05:07 | 19.05376 | -100.63520 | 37109 ft | 458 kts | 114° |
| 2026-05-06 05:07 | 19.02908 | -100.57301 | 37083 ft | 458 kts | 114° |
| 2026-05-06 05:08 | 19.00435 | -100.51073 | 37096 ft | 458 kts | 114° |
| 2026-05-06 05:08 | 18.97990 | -100.44923 | 37118 ft | 458 kts | 114° |
| 2026-05-06 05:09 | 18.95519 | -100.38715 | 37154 ft | 458 kts | 114° |
| 2026-05-06 05:09 | 18.93039 | -100.32490 | 36862 ft | 462 kts | 114° |
| 2026-05-06 05:09 | 18.91787 | -100.29349 | 36004 ft | 466 kts | 114° |
| 2026-05-06 05:10 | 18.90479 | -100.26071 | 35102 ft | 467 kts | 114° |
| 2026-05-06 05:10 | 18.89148 | -100.22739 | 34310 ft | 466 kts | 114° |
| 2026-05-06 05:10 | 18.87836 | -100.19459 | 33574 ft | 464 kts | 114° |
| 2026-05-06 05:10 | 18.86540 | -100.16223 | 32856 ft | 462 kts | 114° |
| 2026-05-06 05:11 | 18.85215 | -100.12918 | 32142 ft | 460 kts | 114° |
| 2026-05-06 05:11 | 18.83902 | -100.09641 | 31399 ft | 460 kts | 114° |
| 2026-05-06 05:11 | 18.82612 | -100.06428 | 30652 ft | 460 kts | 114° |
| 2026-05-06 05:11 | 18.81307 | -100.03174 | 30061 ft | 455 kts | 114° |
| 2026-05-06 05:12 | 18.80035 | -100.00003 | 29600 ft | 449 kts | 115° |
| 2026-05-06 05:12 | 18.78775 | -99.96864 | 29109 ft | 445 kts | 115° |
| 2026-05-06 05:12 | 18.77549 | -99.93812 | 28607 ft | 441 kts | 114° |
| 2026-05-06 05:12 | 18.76312 | -99.90738 | 28111 ft | 437 kts | 114° |
| 2026-05-06 05:13 | 18.75075 | -99.87664 | 27591 ft | 433 kts | 114° |
| 2026-05-06 05:13 | 18.74069 | -99.84496 | 27021 ft | 432 kts | 101° |
| 2026-05-06 05:13 | 18.74025 | -99.81228 | 26490 ft | 431 kts | 83° |
| 2026-05-06 05:13 | 18.74950 | -99.78051 | 25958 ft | 429 kts | 68° |
| 2026-05-06 05:14 | 18.76241 | -99.75069 | 25444 ft | 426 kts | 67° |
| 2026-05-06 05:14 | 18.77505 | -99.72189 | 24930 ft | 422 kts | 67° |
| 2026-05-06 05:14 | 18.78791 | -99.69233 | 24413 ft | 418 kts | 67° |
| 2026-05-06 05:14 | 18.80030 | -99.66353 | 23914 ft | 414 kts | 68° |
| 2026-05-06 05:15 | 18.81269 | -99.63457 | 23403 ft | 410 kts | 68° |
| 2026-05-06 05:15 | 18.82492 | -99.60583 | 22895 ft | 406 kts | 68° |
| 2026-05-06 05:15 | 18.83696 | -99.57747 | 22393 ft | 402 kts | 68° |
| 2026-05-06 05:15 | 18.84861 | -99.54994 | 21911 ft | 398 kts | 68° |
| 2026-05-06 05:16 | 18.86043 | -99.52200 | 21417 ft | 395 kts | 68° |
| 2026-05-06 05:16 | 18.87219 | -99.49416 | 20915 ft | 392 kts | 68° |
| 2026-05-06 05:16 | 18.88393 | -99.46636 | 20403 ft | 389 kts | 68° |
| 2026-05-06 05:16 | 18.89513 | -99.43986 | 19920 ft | 385 kts | 68° |
| 2026-05-06 05:17 | 18.90609 | -99.41392 | 19522 ft | 379 kts | 68° |
| 2026-05-06 05:17 | 18.91661 | -99.38900 | 19306 ft | 368 kts | 67° |
| 2026-05-06 05:17 | 18.92682 | -99.36486 | 19115 ft | 357 kts | 67° |
| 2026-05-06 05:17 | 18.93685 | -99.34108 | 18931 ft | 345 kts | 68° |
| 2026-05-06 05:18 | 18.94640 | -99.31846 | 18790 ft | 334 kts | 68° |
| 2026-05-06 05:18 | 18.95575 | -99.29630 | 18630 ft | 323 kts | 68° |
| 2026-05-06 05:18 | 18.96306 | -99.27433 | 18391 ft | 313 kts | 84° |
| 2026-05-06 05:18 | 18.96061 | -99.25252 | 18267 ft | 298 kts | 112° |
| 2026-05-06 05:19 | 18.94964 | -99.23417 | 18292 ft | 294 kts | 126° |
| 2026-05-06 05:19 | 18.93714 | -99.21711 | 18305 ft | 294 kts | 126° |
| 2026-05-06 05:19 | 18.92484 | -99.19997 | 18318 ft | 294 kts | 126° |
| 2026-05-06 05:19 | 18.91255 | -99.18253 | 18334 ft | 294 kts | 125° |
| 2026-05-06 05:20 | 18.90045 | -99.16522 | 18347 ft | 293 kts | 125° |
| 2026-05-06 05:20 | 18.88946 | -99.14703 | 18354 ft | 293 kts | 115° |
| 2026-05-06 05:20 | 18.88260 | -99.12686 | 18358 ft | 293 kts | 102° |
| 2026-05-06 05:20 | 18.87862 | -99.10564 | 18356 ft | 293 kts | 100° |
| 2026-05-06 05:21 | 18.87511 | -99.08456 | 18350 ft | 293 kts | 99° |
| 2026-05-06 05:21 | 18.87157 | -99.06335 | 18335 ft | 293 kts | 100° |
| 2026-05-06 05:21 | 18.86979 | -99.04221 | 18313 ft | 293 kts | 83° |
| 2026-05-06 05:21 | 18.87678 | -99.02190 | 18334 ft | 297 kts | 57° |
| 2026-05-06 05:22 | 18.89141 | -99.00685 | 18329 ft | 303 kts | 33° |
| 2026-05-06 05:22 | 18.91142 | -98.99971 | 18248 ft | 309 kts | 7° |
| 2026-05-06 05:22 | 18.93318 | -99.00002 | 17920 ft | 314 kts | 360° |
| 2026-05-06 05:22 | 18.95478 | -99.00131 | 17619 ft | 311 kts | 359° |
| 2026-05-06 05:23 | 18.97636 | -99.00260 | 17346 ft | 306 kts | 359° |
| 2026-05-06 05:23 | 18.99748 | -99.00376 | 17056 ft | 303 kts | 360° |
| 2026-05-06 05:23 | 19.03934 | -99.00578 | 16372 ft | 298 kts | 360° |
| 2026-05-06 05:24 | 19.05995 | -99.00672 | 16034 ft | 296 kts | 0° |
| 2026-05-06 05:24 | 19.08073 | -99.00764 | 15690 ft | 295 kts | 360° |
| 2026-05-06 05:24 | 19.10122 | -99.00856 | 15345 ft | 293 kts | 359° |
| 2026-05-06 05:24 | 19.12141 | -99.00947 | 15011 ft | 291 kts | 359° |
| 2026-05-06 05:25 | 19.14162 | -99.01036 | 14672 ft | 290 kts | 359° |
| 2026-05-06 05:25 | 19.16183 | -99.01128 | 14414 ft | 285 kts | 358° |
| 2026-05-06 05:25 | 19.18088 | -99.01604 | 14168 ft | 281 kts | 332° |
| 2026-05-06 05:25 | 19.19629 | -99.02857 | 13866 ft | 281 kts | 317° |
| 2026-05-06 05:26 | 19.20986 | -99.04250 | 13499 ft | 283 kts | 317° |
| 2026-05-06 05:26 | 19.22403 | -99.05718 | 13138 ft | 283 kts | 317° |
| 2026-05-06 05:26 | 19.23350 | -99.06684 | 12903 ft | 283 kts | 316° |
| 2026-05-06 05:26 | 19.25108 | -99.08760 | 12438 ft | 283 kts | 309° |
| 2026-05-06 05:27 | 19.26289 | -99.10386 | 12094 ft | 282 kts | 308° |
| 2026-05-06 05:27 | 19.27459 | -99.12024 | 11757 ft | 281 kts | 308° |
| 2026-05-06 05:27 | 19.28628 | -99.13658 | 11422 ft | 279 kts | 308° |
| 2026-05-06 05:27 | 19.29796 | -99.15286 | 11088 ft | 278 kts | 308° |
| 2026-05-06 05:28 | 19.30954 | -99.16895 | 10761 ft | 276 kts | 308° |
| 2026-05-06 05:28 | 19.32171 | -99.18469 | 10459 ft | 272 kts | 318° |
| 2026-05-06 05:28 | 19.33809 | -99.19460 | 10008 ft | 273 kts | 346° |
| 2026-05-06 05:28 | 19.35663 | -99.19481 | 9745 ft | 269 kts | 15° |
| 2026-05-06 05:29 | 19.37270 | -99.18568 | 9508 ft | 258 kts | 44° |
| 2026-05-06 05:29 | 19.38257 | -99.17054 | 9177 ft | 249 kts | 63° |
| 2026-05-06 05:29 | 19.38988 | -99.15435 | 8974 ft | 230 kts | 63° |
| 2026-05-06 05:29 | 19.39683 | -99.13979 | 8637 ft | 215 kts | 60° |
| 2026-05-06 05:30 | 19.40413 | -99.12653 | 8315 ft | 198 kts | 57° |
| 2026-05-06 05:30 | 19.41093 | -99.11465 | 8041 ft | 181 kts | 57° |
| 2026-05-06 05:30 | 19.41709 | -99.10365 | 7807 ft | 166 kts | 57° |
| 2026-05-06 05:30 | 19.42284 | -99.09319 | 7621 ft | 163 kts | 56° |
| 2026-05-06 05:31 | 19.42872 | -99.08290 | 7419 ft | 162 kts | 57° |
| 2026-05-06 05:31 | 19.43409 | -99.07348 | 7340 ft | 124 kts | 54° |
| 2026-05-06 05:31 | 19.43691 | -99.06822 | 7342 ft | 58 kts | 57° |
| 2026-05-06 05:31 | 19.43850 | -99.06541 | 7336 ft | 30 kts | 59° |
| 2026-05-06 05:32 | 19.43959 | -99.06353 | 7332 ft | 29 kts | 53° |